createdAt,value
2019-03-04T00:00:03.747Z,79.39
2019-03-04T00:01:03.761Z,78.88
2019-03-04T00:02:05.573Z,79.25
2019-03-04T00:03:03.724Z,78.37
2019-03-04T00:04:04.063Z,78.16
2019-03-04T00:05:03.687Z,78.33
2019-03-04T00:06:03.677Z,78.02
2019-03-04T00:07:03.763Z,78.23
2019-03-04T00:08:03.999Z,78.12
2019-03-04T00:09:03.652Z,78.23
2019-03-04T00:10:04.861Z,77.72
2019-03-04T00:11:03.630Z,77.62
2019-03-04T00:12:03.620Z,77.72
2019-03-04T00:13:03.605Z,77.82
2019-03-04T00:14:03.671Z,78.02
2019-03-04T00:15:03.592Z,77.41
2019-03-04T00:16:05.573Z,77.62
2019-03-04T00:17:03.571Z,77.41
2019-03-04T00:18:03.542Z,77.82
2019-03-04T00:19:03.643Z,77.31
2019-03-04T00:20:03.523Z,77.21
2019-03-04T00:21:03.571Z,77.41
2019-03-04T00:22:03.511Z,77.07
2019-03-04T00:23:03.499Z,77.51
2019-03-04T00:24:04.050Z,77.11
2019-03-04T00:25:03.461Z,77.31
2019-03-04T00:26:03.489Z,77.00
2019-03-04T00:27:03.441Z,77.27
2019-03-04T00:28:03.442Z,77.00
2019-03-04T00:29:03.460Z,77.27
2019-03-04T00:30:03.456Z,77.51
2019-03-04T00:31:03.422Z,76.46
2019-03-04T00:32:03.384Z,77.37
2019-03-04T00:33:03.373Z,77.31
2019-03-04T00:34:03.495Z,76.87
2019-03-04T00:35:03.352Z,77.17
2019-03-04T00:36:03.391Z,76.90
2019-03-04T00:37:04.078Z,77.27
2019-03-04T00:38:03.320Z,76.90
2019-03-04T00:39:03.303Z,77.31
2019-03-04T00:40:03.323Z,77.21
2019-03-04T00:41:03.332Z,77.41
2019-03-04T00:42:03.282Z,77.07
2019-03-04T00:43:04.255Z,77.17
2019-03-04T00:44:03.468Z,76.15
2019-03-04T00:45:03.282Z,77.17
2019-03-04T00:46:03.239Z,76.25
2019-03-04T00:47:03.242Z,77.17
2019-03-04T00:48:04.047Z,76.25
2019-03-04T00:49:03.193Z,75.64
2019-03-04T00:50:03.197Z,75.95
2019-03-04T00:51:03.204Z,76.25
2019-03-04T00:52:04.182Z,76.15
2019-03-04T00:53:03.166Z,76.15
2019-03-04T00:54:03.160Z,76.25
2019-03-04T00:55:03.132Z,75.95
2019-03-04T00:56:03.200Z,76.15
2019-03-04T00:57:03.129Z,75.64
2019-03-04T00:58:03.246Z,75.44
2019-03-04T00:59:03.089Z,75.44
2019-03-04T01:00:03.071Z,75.74
2019-03-04T01:01:03.207Z,75.64
2019-03-04T01:02:03.053Z,75.64
2019-03-04T01:03:03.049Z,75.44
2019-03-04T01:04:03.078Z,75.23
2019-03-04T01:05:03.040Z,74.83
2019-03-04T01:06:03.527Z,75.03
2019-03-04T01:07:03.044Z,75.20
2019-03-04T01:08:02.985Z,75.34
2019-03-04T01:09:02.969Z,75.44
2019-03-04T01:10:02.964Z,75.34
2019-03-04T01:11:03.642Z,75.44
2019-03-04T01:12:02.948Z,75.54
2019-03-04T01:13:03.114Z,75.54
2019-03-04T01:14:02.935Z,74.93
2019-03-04T01:15:02.915Z,75.34
2019-03-04T01:16:02.975Z,75.44
2019-03-04T01:17:02.887Z,75.34
2019-03-04T01:18:02.897Z,75.44
2019-03-04T01:19:02.865Z,75.03
2019-03-04T01:20:02.849Z,75.44
2019-03-04T01:21:02.950Z,75.64
2019-03-04T01:22:02.825Z,75.34
2019-03-04T01:23:02.852Z,75.74
2019-03-04T01:24:02.874Z,75.23
2019-03-04T01:25:02.796Z,75.74
2019-03-04T01:26:02.791Z,74.83
2019-03-04T01:27:02.827Z,75.64
2019-03-04T01:28:02.809Z,74.83
2019-03-04T01:29:02.765Z,75.34
2019-03-04T01:30:02.739Z,75.44
2019-03-04T01:31:02.768Z,75.44
2019-03-04T01:32:02.746Z,75.34
2019-03-04T01:33:02.765Z,75.13
2019-03-04T01:34:02.714Z,75.54
2019-03-04T01:35:02.707Z,75.34
2019-03-04T01:36:02.689Z,75.44
2019-03-04T01:37:02.669Z,75.34
2019-03-04T01:38:02.655Z,75.64
2019-03-04T01:39:02.677Z,75.88
2019-03-04T01:40:02.629Z,75.74
2019-03-04T01:41:02.630Z,75.74
2019-03-04T01:42:02.602Z,75.74
2019-03-04T01:43:02.604Z,75.34
2019-03-04T01:44:02.629Z,75.54
2019-03-04T01:45:02.734Z,75.54
2019-03-04T01:46:02.564Z,75.64
2019-03-04T01:47:02.554Z,74.93
2019-03-04T01:48:02.810Z,75.44
2019-03-04T01:49:02.531Z,75.44
2019-03-04T01:50:02.522Z,75.44
2019-03-04T01:51:02.555Z,75.68
2019-03-04T01:52:02.635Z,75.34
2019-03-04T01:53:02.514Z,75.44
2019-03-04T01:54:02.470Z,75.44
2019-03-04T01:55:02.461Z,75.64
2019-03-04T01:56:02.457Z,75.44
2019-03-04T01:57:02.457Z,75.44
2019-03-04T01:58:02.436Z,75.68
2019-03-04T01:59:02.459Z,76.05
2019-03-04T02:00:02.419Z,74.93
2019-03-04T02:01:02.480Z,75.23
2019-03-04T02:02:02.426Z,75.37
2019-03-04T02:03:02.369Z,75.23
2019-03-04T02:04:02.362Z,74.21
2019-03-04T02:05:02.362Z,74.62
2019-03-04T02:06:03.022Z,74.32
2019-03-04T02:07:02.323Z,74.62
2019-03-04T02:08:02.322Z,75.23
2019-03-04T02:09:02.313Z,75.23
2019-03-04T02:10:02.528Z,75.13
2019-03-04T02:11:02.299Z,74.21
2019-03-04T02:12:02.325Z,73.71
2019-03-04T02:13:02.313Z,74.52
2019-03-04T02:14:02.347Z,73.81
2019-03-04T02:15:02.232Z,73.71
2019-03-04T02:16:02.236Z,73.71
2019-03-04T02:17:02.224Z,72.69
2019-03-04T02:18:02.245Z,72.89
2019-03-04T02:19:04.068Z,73.19
2019-03-04T02:20:02.373Z,72.86
2019-03-04T02:21:02.168Z,72.86
2019-03-04T02:22:02.174Z,72.89
2019-03-04T02:23:03.140Z,73.71
2019-03-04T02:24:02.180Z,72.89
2019-03-04T02:25:02.127Z,72.99
2019-03-04T02:26:02.193Z,72.79
2019-03-04T02:27:02.109Z,72.69
2019-03-04T02:28:03.089Z,72.79
2019-03-04T02:29:02.108Z,72.69
2019-03-04T02:30:02.118Z,72.69
2019-03-04T02:31:02.149Z,72.89
2019-03-04T02:32:03.044Z,72.48
2019-03-04T02:33:02.061Z,72.69
2019-03-04T02:34:02.032Z,72.69
2019-03-04T02:35:02.072Z,72.89
2019-03-04T02:36:02.011Z,72.99
2019-03-04T02:37:02.608Z,72.89
2019-03-04T02:38:01.980Z,72.99
2019-03-04T02:39:01.999Z,72.48
2019-03-04T02:40:01.992Z,72.89
2019-03-04T02:41:01.943Z,71.87
2019-03-04T02:42:02.229Z,71.94
2019-03-04T02:43:02.539Z,71.94
2019-03-04T02:44:02.022Z,72.04
2019-03-04T02:45:01.907Z,72.24
2019-03-04T02:46:01.904Z,71.73
2019-03-04T02:47:03.095Z,72.17
2019-03-04T02:48:01.877Z,71.94
2019-03-04T02:49:02.094Z,71.94
2019-03-04T02:50:01.865Z,72.04
2019-03-04T02:51:01.868Z,71.94
2019-03-04T02:52:01.827Z,71.53
2019-03-04T02:53:01.823Z,71.94
2019-03-04T02:54:02.631Z,72.24
2019-03-04T02:55:01.826Z,71.97
2019-03-04T02:56:01.803Z,72.45
2019-03-04T02:57:01.875Z,72.08
2019-03-04T02:58:01.756Z,72.28
2019-03-04T02:59:01.804Z,72.34
2019-03-04T03:00:01.756Z,72.48
2019-03-04T03:01:01.743Z,72.69
2019-03-04T03:02:01.773Z,72.55
2019-03-04T03:03:01.704Z,72.89
2019-03-04T03:04:02.722Z,72.89
2019-03-04T03:05:02.706Z,72.79
2019-03-04T03:06:01.707Z,72.89
2019-03-04T03:07:01.675Z,72.58
2019-03-04T03:08:01.648Z,72.89
2019-03-04T03:09:01.674Z,72.38
2019-03-04T03:10:01.645Z,73.19
2019-03-04T03:11:01.626Z,72.89
2019-03-04T03:12:01.631Z,72.89
2019-03-04T03:13:01.601Z,72.89
2019-03-04T03:14:01.662Z,72.58
2019-03-04T03:15:01.570Z,72.69
2019-03-04T03:16:01.554Z,72.69
2019-03-04T03:17:01.643Z,72.28
2019-03-04T03:18:01.532Z,72.58
2019-03-04T03:19:01.545Z,72.58
2019-03-04T03:20:01.561Z,72.17
2019-03-04T03:21:01.496Z,72.38
2019-03-04T03:22:01.563Z,72.99
2019-03-04T03:23:01.670Z,72.58
2019-03-04T03:24:01.470Z,72.38
2019-03-04T03:25:01.473Z,72.48
2019-03-04T03:26:01.439Z,72.48
2019-03-04T03:27:01.545Z,72.08
2019-03-04T03:28:01.444Z,71.77
2019-03-04T03:29:01.420Z,71.77
2019-03-04T03:30:01.417Z,71.87
2019-03-04T03:31:01.546Z,71.26
2019-03-04T03:32:01.462Z,70.65
2019-03-04T03:33:01.384Z,71.15
2019-03-04T03:34:01.370Z,70.65
2019-03-04T03:35:01.396Z,71.23
2019-03-04T03:36:01.376Z,70.95
2019-03-04T03:37:01.323Z,70.95
2019-03-04T03:38:01.340Z,71.15
2019-03-04T03:39:01.309Z,70.75
2019-03-04T03:40:01.370Z,70.54
2019-03-04T03:41:01.288Z,70.10
2019-03-04T03:42:01.454Z,70.51
2019-03-04T03:43:01.269Z,69.90
2019-03-04T03:44:01.312Z,69.80
2019-03-04T03:45:01.251Z,70.21
2019-03-04T03:46:01.253Z,70.00
2019-03-04T03:47:01.300Z,69.90
2019-03-04T03:48:02.090Z,69.90
2019-03-04T03:49:01.191Z,70.31
2019-03-04T03:50:01.176Z,70.51
2019-03-04T03:51:01.218Z,69.90
2019-03-04T03:52:01.653Z,70.00
2019-03-04T03:53:01.213Z,69.09
2019-03-04T03:54:01.139Z,69.19
2019-03-04T03:55:01.185Z,69.29
2019-03-04T03:56:01.114Z,68.37
2019-03-04T03:57:01.137Z,68.98
2019-03-04T03:58:01.091Z,68.68
2019-03-04T03:59:01.090Z,68.54
2019-03-04T04:00:01.087Z,68.65
2019-03-04T04:01:01.056Z,68.44
2019-03-04T04:02:01.086Z,68.65
2019-03-04T04:03:01.033Z,68.75
2019-03-04T04:04:01.041Z,68.75
2019-03-04T04:05:01.038Z,68.85
2019-03-04T04:06:01.045Z,68.34
2019-03-04T04:07:01.070Z,68.88
2019-03-04T04:08:00.981Z,68.34
2019-03-04T04:09:07.552Z,68.75
2019-03-04T04:10:01.405Z,67.63
2019-03-04T04:11:00.957Z,67.83
2019-03-04T04:12:00.953Z,67.63
2019-03-04T04:13:00.953Z,67.22
2019-03-04T04:14:00.912Z,67.22
2019-03-04T04:15:01.119Z,67.22
2019-03-04T04:16:00.888Z,67.32
2019-03-04T04:17:00.925Z,66.88
2019-03-04T04:18:00.920Z,67.22
2019-03-04T04:19:00.858Z,67.32
2019-03-04T04:20:00.920Z,66.82
2019-03-04T04:21:00.928Z,67.12
2019-03-04T04:22:00.825Z,66.68
2019-03-04T04:23:00.870Z,66.38
2019-03-04T04:24:00.867Z,66.27
2019-03-04T04:25:00.793Z,66.58
2019-03-04T04:26:00.804Z,66.38
2019-03-04T04:27:00.768Z,66.38
2019-03-04T04:28:00.829Z,67.19
2019-03-04T04:29:00.801Z,66.38
2019-03-04T04:30:01.307Z,66.27
2019-03-04T04:31:00.813Z,66.58
2019-03-04T04:32:00.728Z,65.43
2019-03-04T04:33:00.696Z,65.22
2019-03-04T04:34:00.685Z,65.73
2019-03-04T04:35:00.882Z,65.33
2019-03-04T04:36:01.878Z,65.33
2019-03-04T04:37:00.667Z,66.04
2019-03-04T04:38:00.680Z,66.14
2019-03-04T04:39:01.579Z,65.86
2019-03-04T04:40:00.654Z,66.38
2019-03-04T04:41:00.626Z,66.27
2019-03-04T04:42:00.598Z,65.86
2019-03-04T04:43:00.887Z,65.66
2019-03-04T04:44:00.574Z,65.46
2019-03-04T04:45:00.729Z,66.17
2019-03-04T04:46:00.552Z,65.66
2019-03-04T04:47:00.651Z,65.66
2019-03-04T04:48:00.647Z,65.36
2019-03-04T04:49:01.113Z,65.66
2019-03-04T04:50:00.635Z,65.53
2019-03-04T04:51:01.059Z,64.61
2019-03-04T04:52:00.576Z,65.43
2019-03-04T04:53:00.516Z,65.94
2019-03-04T04:54:01.142Z,65.56
2019-03-04T04:55:00.611Z,65.86
2019-03-04T04:56:00.534Z,65.36
2019-03-04T04:57:00.437Z,65.77
2019-03-04T04:58:00.435Z,65.86
2019-03-04T04:59:00.636Z,64.95
2019-03-04T05:01:34.679Z,65.77
2019-03-04T05:02:35.383Z,65.36
2019-03-04T05:03:34.436Z,65.25
2019-03-04T05:04:34.389Z,65.25
2019-03-04T05:05:34.346Z,64.75
2019-03-04T05:06:34.912Z,64.92
2019-03-04T05:07:34.350Z,64.41
2019-03-04T05:08:34.317Z,64.72
2019-03-04T05:09:34.224Z,64.20
2019-03-04T05:10:34.250Z,64.81
2019-03-04T05:11:34.196Z,65.43
2019-03-04T05:12:34.204Z,65.02
2019-03-04T05:13:34.315Z,65.43
2019-03-04T05:14:34.163Z,64.95
2019-03-04T05:15:34.156Z,64.75
2019-03-04T05:16:34.463Z,64.72
2019-03-04T05:17:34.847Z,65.02
2019-03-04T05:18:34.130Z,64.72
2019-03-04T05:19:34.175Z,65.43
2019-03-04T05:20:34.103Z,65.22
2019-03-04T05:21:34.123Z,65.63
2019-03-04T05:22:34.072Z,65.36
2019-03-04T05:23:34.100Z,65.66
2019-03-04T05:24:34.053Z,65.46
2019-03-04T05:25:34.046Z,66.17
2019-03-04T05:26:34.024Z,65.66
2019-03-04T05:27:34.032Z,65.25
2019-03-04T05:28:34.040Z,66.07
2019-03-04T05:29:33.989Z,65.86
2019-03-04T05:30:33.983Z,65.46
2019-03-04T05:31:35.167Z,65.56
2019-03-04T05:32:34.185Z,65.66
2019-03-04T05:33:34.017Z,66.07
2019-03-04T05:34:33.945Z,65.77
2019-03-04T05:35:33.945Z,66.82
2019-03-04T05:36:33.977Z,65.80
2019-03-04T05:37:42.441Z,66.07
2019-03-04T05:38:33.889Z,66.10
2019-03-04T05:39:33.878Z,65.89
2019-03-04T05:40:33.881Z,66.71
2019-03-04T05:41:34.488Z,66.50
2019-03-04T05:42:33.895Z,66.61
2019-03-04T05:43:34.481Z,66.82
2019-03-04T05:44:34.425Z,66.61
2019-03-04T05:45:33.824Z,66.41
2019-03-04T05:46:33.926Z,66.50
2019-03-04T05:47:34.433Z,66.61
2019-03-04T05:48:33.805Z,66.41
2019-03-04T05:49:33.779Z,66.50
2019-03-04T05:50:33.785Z,66.61
2019-03-04T05:51:33.748Z,66.41
2019-03-04T05:52:33.887Z,66.41
2019-03-04T05:53:34.169Z,66.91
2019-03-04T05:54:33.727Z,67.12
2019-03-04T05:55:35.437Z,67.22
2019-03-04T05:56:33.696Z,67.35
2019-03-04T05:57:34.421Z,66.71
2019-03-04T05:58:33.697Z,67.12
2019-03-04T05:59:33.751Z,67.12
2019-03-04T06:00:33.686Z,67.22
2019-03-04T06:01:33.667Z,66.41
2019-03-04T06:02:33.844Z,66.50
2019-03-04T06:03:33.631Z,66.61
2019-03-04T06:04:33.683Z,66.71
2019-03-04T06:05:33.596Z,66.41
2019-03-04T06:06:33.592Z,66.50
2019-03-04T06:07:33.701Z,66.82
2019-03-04T06:08:33.573Z,66.91
2019-03-04T06:09:33.557Z,66.61
2019-03-04T06:10:33.559Z,66.10
2019-03-04T06:11:33.531Z,66.10
2019-03-04T06:12:35.625Z,66.10
2019-03-04T06:13:33.508Z,66.20
2019-03-04T06:14:33.555Z,66.10
2019-03-04T06:15:34.421Z,66.50
2019-03-04T06:16:34.439Z,66.10
2019-03-04T06:17:33.474Z,66.10
2019-03-04T06:18:33.810Z,66.41
2019-03-04T06:19:34.460Z,66.20
2019-03-04T06:20:33.468Z,66.20
2019-03-04T06:21:33.454Z,66.10
2019-03-04T06:22:33.406Z,66.41
2019-03-04T06:23:33.400Z,66.00
2019-03-04T06:24:33.464Z,66.41
2019-03-04T06:25:33.374Z,66.50
2019-03-04T06:26:33.381Z,66.00
2019-03-04T06:27:33.358Z,66.10
2019-03-04T06:28:33.340Z,66.41
2019-03-04T06:29:33.341Z,66.00
2019-03-04T06:30:33.323Z,66.10
2019-03-04T06:31:33.318Z,66.30
2019-03-04T06:32:33.291Z,66.30
2019-03-04T06:33:42.120Z,65.49
2019-03-04T06:34:33.880Z,66.00
2019-03-04T06:35:33.349Z,65.69
2019-03-04T06:36:34.176Z,66.61
2019-03-04T06:37:34.067Z,67.12
2019-03-04T06:38:33.224Z,66.91
2019-03-04T06:39:33.225Z,68.04
2019-03-04T06:40:33.395Z,67.83
2019-03-04T06:43:49.533Z,68.75
2019-03-04T06:44:49.380Z,68.68
2019-03-04T06:47:36.051Z,70.61
2019-03-04T06:48:41.123Z,71.97
2019-03-04T06:49:35.446Z,72.58
2019-03-04T06:50:35.406Z,73.50
2019-03-04T06:51:35.409Z,74.76
2019-03-04T06:52:36.183Z,77.34
2019-03-04T06:53:35.591Z,76.60
2019-03-04T06:54:36.415Z,78.31
2019-03-04T06:55:35.357Z,79.69
2019-03-04T06:56:35.386Z,81.20
2019-03-04T06:57:35.478Z,83.40
2019-03-04T06:58:35.318Z,83.85
2019-03-04T06:59:35.334Z,86.46
2019-03-04T07:00:35.366Z,85.84
2019-03-04T07:01:35.306Z,85.84
2019-03-04T07:02:35.275Z,87.49
2019-03-04T07:03:35.294Z,87.84
2019-03-04T07:04:35.436Z,87.52
2019-03-04T07:05:35.244Z,87.59
2019-03-04T07:06:35.228Z,88.24
2019-03-04T07:07:36.127Z,87.22
2019-03-04T07:08:35.216Z,87.01
2019-03-04T07:09:35.218Z,87.94
2019-03-04T07:10:35.255Z,87.94
2019-03-04T07:11:35.173Z,87.32
2019-03-04T07:12:35.447Z,87.77
2019-03-04T07:13:35.253Z,86.54
2019-03-04T07:14:35.163Z,86.64
2019-03-04T07:15:35.169Z,87.46
2019-03-04T07:16:35.123Z,87.46
2019-03-04T07:17:35.236Z,88.08
2019-03-04T07:18:35.106Z,87.30
2019-03-04T07:19:35.092Z,87.71
2019-03-04T07:20:35.096Z,87.71
2019-03-04T07:21:35.084Z,86.47
2019-03-04T07:22:35.111Z,86.58
2019-03-04T07:23:35.057Z,88.23
2019-03-04T07:24:35.082Z,86.99
2019-03-04T07:25:35.029Z,86.47
2019-03-04T07:26:35.075Z,87.40
2019-03-04T07:27:35.660Z,86.72
2019-03-04T07:28:35.067Z,87.54
2019-03-04T07:29:35.006Z,86.58
2019-03-04T07:32:09.180Z,87.75
2019-03-04T07:33:08.365Z,86.41
2019-03-04T07:34:08.849Z,85.38
2019-03-04T07:35:08.994Z,84.97
2019-03-04T07:36:08.254Z,85.59
2019-03-04T07:37:08.524Z,84.97
2019-03-04T07:38:08.114Z,84.83
2019-03-04T07:39:08.118Z,84.42
2019-03-04T07:40:08.100Z,82.46
2019-03-04T07:41:08.071Z,82.67
2019-03-04T07:42:09.466Z,81.74
2019-03-04T07:43:08.060Z,81.29
2019-03-04T07:44:09.150Z,79.54
2019-03-04T07:45:10.572Z,80.47
2019-03-04T07:46:08.007Z,80.98
2019-03-04T07:47:08.007Z,79.09
2019-03-04T07:48:07.990Z,80.02
2019-03-04T07:49:08.584Z,78.68
2019-03-04T07:50:08.068Z,78.68
2019-03-04T07:51:07.979Z,77.72
2019-03-04T07:52:08.050Z,77.20
2019-03-04T07:53:07.933Z,78.23
2019-03-04T07:54:07.967Z,76.38
2019-03-04T07:55:07.927Z,76.79
2019-03-04T07:56:07.937Z,75.93
2019-03-04T07:57:08.055Z,76.65
2019-03-04T07:58:14.577Z,75.63
2019-03-04T07:59:08.570Z,76.45
2019-03-04T08:00:07.874Z,76.25
2019-03-04T08:01:07.853Z,76.04
2019-03-04T08:02:07.857Z,76.10
2019-03-04T08:03:07.886Z,75.52
2019-03-04T08:04:07.813Z,76.10
2019-03-04T08:05:07.899Z,76.00
2019-03-04T08:06:07.826Z,75.29
2019-03-04T08:07:07.881Z,76.51
2019-03-04T08:10:53.613Z,74.87
2019-03-04T08:11:52.407Z,74.84
2019-03-04T08:12:52.419Z,74.43
2019-03-04T08:13:52.387Z,75.15
2019-03-04T08:14:52.365Z,74.02
2019-03-04T08:15:52.475Z,73.27
2019-03-04T08:16:52.393Z,73.98
2019-03-04T08:17:52.515Z,73.16
2019-03-04T08:18:52.319Z,73.06
2019-03-04T08:19:52.313Z,72.82
2019-03-04T08:20:52.305Z,73.02
2019-03-04T08:21:52.336Z,73.33
2019-03-04T08:22:52.288Z,73.23
2019-03-04T08:23:52.266Z,72.48
2019-03-04T08:24:52.251Z,72.72
2019-03-04T08:25:52.338Z,72.17
2019-03-04T08:26:52.245Z,71.11
2019-03-04T08:27:52.221Z,71.22
2019-03-04T08:28:52.253Z,71.01
2019-03-04T08:29:52.199Z,72.03
2019-03-04T08:30:52.203Z,71.83
2019-03-04T08:31:52.258Z,71.49
2019-03-04T08:32:52.189Z,70.81
2019-03-04T08:33:52.231Z,71.01
2019-03-04T08:34:52.139Z,69.98
2019-03-04T08:35:52.161Z,69.65
2019-03-04T08:36:52.150Z,69.98
2019-03-04T08:37:52.105Z,69.95
2019-03-04T08:38:52.146Z,70.57
2019-03-04T08:39:52.084Z,71.08
2019-03-04T08:40:52.072Z,69.95
2019-03-04T08:41:52.102Z,70.57
2019-03-04T08:42:52.056Z,72.75
2019-03-04T08:43:52.061Z,71.62
2019-03-04T08:44:52.052Z,71.22
2019-03-04T08:45:52.970Z,70.60
2019-03-04T08:46:52.079Z,70.19
2019-03-04T08:48:28.881Z,70.29
2019-03-04T08:48:52.151Z,69.78
2019-03-04T08:49:52.033Z,71.01
2019-03-04T08:50:51.963Z,69.98
2019-03-04T08:51:51.951Z,71.11
2019-03-04T08:52:51.981Z,70.60
2019-03-04T08:53:51.934Z,71.42
2019-03-04T08:54:51.918Z,70.81
2019-03-04T08:55:51.987Z,69.68
2019-03-04T08:56:51.898Z,70.50
2019-03-04T08:57:51.916Z,70.91
2019-03-04T08:58:51.871Z,70.91
2019-03-04T08:59:51.865Z,70.40
2019-03-04T09:00:52.845Z,70.70
2019-03-04T09:01:51.857Z,69.37
2019-03-04T09:02:51.831Z,68.96
2019-03-04T09:03:51.837Z,69.03
2019-03-04T09:04:51.805Z,68.93
2019-03-04T09:05:51.794Z,68.83
2019-03-04T09:06:52.892Z,68.73
2019-03-04T09:24:56.728Z,66.07
2019-03-04T09:25:56.234Z,64.74
2019-03-04T09:26:56.271Z,64.33
2019-03-04T09:32:07.132Z,62.26
2019-03-04T09:33:06.912Z,61.21
2019-03-04T09:34:06.953Z,61.85
2019-03-04T09:35:07.069Z,60.72
2019-03-04T09:36:07.018Z,60.72
2019-03-04T09:37:06.991Z,59.98
2019-03-04T09:38:07.686Z,59.88
2019-03-04T09:39:06.759Z,60.19
2019-03-04T09:40:06.758Z,60.31
2019-03-04T09:41:07.813Z,61.92
2019-03-04T09:42:06.759Z,61.51
2019-03-04T09:43:06.756Z,61.10
2019-03-04T09:44:06.740Z,61.21
2019-03-04T09:45:06.783Z,60.90
2019-03-04T09:46:06.682Z,62.16
2019-03-04T09:47:06.671Z,62.13
2019-03-04T09:48:06.768Z,62.23
2019-03-04T09:49:06.703Z,62.95
2019-03-04T09:50:06.635Z,62.26
2019-03-04T09:51:07.288Z,63.45
2019-03-04T09:52:06.684Z,62.46
2019-03-04T09:53:06.594Z,61.95
2019-03-04T09:54:09.230Z,63.59
2019-03-04T09:55:06.584Z,63.21
2019-03-04T09:56:06.561Z,61.75
2019-03-04T09:57:06.571Z,63.00
2019-03-04T09:58:06.540Z,63.51
2019-03-04T09:59:06.608Z,62.90
2019-03-04T10:00:06.534Z,62.29
2019-03-04T10:01:06.537Z,62.26
2019-03-04T10:02:06.518Z,62.16
2019-03-04T10:03:06.497Z,62.16
2019-03-04T10:04:06.692Z,62.36
2019-03-04T10:05:06.463Z,62.18
2019-03-04T10:06:06.481Z,61.75
2019-03-04T10:07:06.462Z,62.66
2019-03-04T10:08:07.252Z,61.44
2019-03-04T10:09:06.423Z,61.34
2019-03-04T10:10:06.438Z,62.36
2019-03-04T10:11:06.406Z,62.36
2019-03-04T10:12:06.408Z,63.28
2019-03-04T10:13:06.548Z,61.85
2019-03-04T10:14:06.793Z,62.87
2019-03-04T10:15:08.762Z,62.57
2019-03-04T10:16:07.225Z,63.48
2019-03-04T10:17:06.340Z,63.48
2019-03-04T10:18:06.409Z,64.13
2019-03-04T10:19:06.359Z,63.62
2019-03-04T10:20:06.290Z,65.05
2019-03-04T10:21:06.350Z,66.20
2019-03-04T10:22:06.336Z,67.67
2019-03-04T10:23:08.240Z,69.00
2019-03-04T10:24:06.246Z,70.26
2019-03-04T10:25:06.319Z,70.98
2019-03-04T10:26:06.251Z,71.52
2019-03-04T10:27:16.826Z,74.22
2019-03-04T10:28:06.426Z,74.22
2019-03-04T10:29:06.252Z,73.81
2019-03-04T10:30:06.438Z,74.26
2019-03-04T10:31:06.916Z,77.54
2019-03-04T10:32:06.692Z,76.10
2019-03-04T10:33:06.179Z,74.36
2019-03-04T10:34:06.203Z,73.85
2019-03-04T10:35:06.937Z,76.04
2019-03-04T10:36:06.309Z,77.06
2019-03-04T10:37:06.110Z,77.47
2019-03-04T10:38:06.399Z,78.29
2019-03-04T10:39:06.118Z,78.60
2019-03-04T10:40:06.075Z,81.16
2019-03-04T10:41:06.113Z,79.77
2019-03-04T10:42:06.211Z,80.38
2019-03-04T10:44:37.886Z,80.38
2019-03-04T10:45:35.583Z,77.92
2019-03-04T10:46:35.453Z,79.22
2019-03-04T10:47:35.775Z,77.98
2019-03-04T10:48:35.440Z,79.52
2019-03-04T10:49:37.615Z,79.25
2019-03-04T10:50:35.367Z,80.55
2019-03-04T11:01:30.136Z,76.20
2019-03-04T11:02:23.594Z,75.59
2019-03-04T11:03:22.013Z,74.77
2019-03-04T11:04:22.784Z,75.96
2019-03-04T11:05:22.368Z,77.20
2019-03-04T11:06:24.943Z,76.27
2019-03-04T11:07:22.025Z,76.58
2019-03-04T11:08:21.861Z,76.27
2019-03-04T11:09:21.741Z,76.44
2019-03-04T11:10:21.806Z,76.75
2019-03-04T11:11:29.459Z,76.07
2019-03-04T11:12:24.828Z,74.84
2019-03-04T11:13:21.806Z,75.56
2019-03-04T11:14:22.648Z,76.17
2019-03-04T11:15:21.677Z,76.37
2019-03-04T11:16:26.779Z,76.48
2019-03-04T11:17:30.340Z,76.07
2019-03-04T11:18:21.654Z,74.63
2019-03-04T11:19:22.220Z,75.96
2019-03-04T11:20:21.663Z,76.07
2019-03-04T11:21:21.689Z,75.76
2019-03-04T11:22:21.602Z,76.00
2019-03-04T11:23:22.239Z,76.92
2019-03-04T11:24:21.577Z,77.20
2019-03-04T11:25:22.330Z,77.71
2019-03-04T11:26:21.604Z,75.35
2019-03-04T11:27:21.553Z,76.17
2019-03-04T11:28:21.526Z,76.17
2019-03-04T11:29:21.523Z,75.96
2019-03-04T11:30:21.555Z,75.24
2019-03-04T11:31:21.509Z,75.96
2019-03-04T11:32:21.580Z,75.96
2019-03-04T11:33:21.524Z,76.78
2019-03-04T11:34:21.486Z,76.89
2019-03-04T11:35:21.581Z,77.09
2019-03-04T11:36:21.485Z,76.58
2019-03-04T11:37:21.551Z,77.09
2019-03-04T11:38:21.541Z,76.78
2019-03-04T11:40:51.204Z,74.94
2019-03-04T11:41:51.584Z,75.96
2019-03-04T11:42:51.093Z,76.27
2019-03-04T11:43:51.086Z,75.76
2019-03-04T11:44:51.023Z,74.32
2019-03-04T11:45:51.951Z,76.17
2019-03-04T11:46:50.941Z,75.96
2019-03-04T11:47:50.931Z,77.61
2019-03-04T11:48:51.857Z,77.50
2019-03-04T11:49:50.843Z,76.27
2019-03-04T11:50:54.408Z,77.33
2019-03-04T11:56:27.713Z,83.45
2019-03-04T11:57:27.720Z,85.79
2019-03-04T11:58:27.105Z,87.99
2019-03-04T11:59:29.812Z,90.31
2019-03-04T12:00:27.124Z,90.41
2019-03-04T12:01:26.980Z,90.14
2019-03-04T12:02:26.879Z,90.92
2019-03-04T12:03:26.870Z,89.42
2019-03-04T12:04:26.914Z,90.97
2019-03-04T12:05:28.788Z,89.42
2019-03-04T12:06:26.822Z,90.76
2019-03-04T12:07:26.858Z,89.58
2019-03-04T12:08:26.802Z,90.92
2019-03-04T12:09:26.792Z,91.69
2019-03-04T12:10:26.802Z,90.86
2019-03-04T12:11:26.760Z,91.38
2019-03-04T12:12:26.878Z,90.66
2019-03-04T12:13:26.757Z,90.66
2019-03-04T12:14:26.762Z,91.79
2019-03-04T12:15:26.769Z,91.79
2019-03-04T12:16:26.828Z,91.69
2019-03-04T12:17:26.693Z,91.34
2019-03-04T12:18:26.692Z,92.00
2019-03-04T12:19:28.780Z,91.48
2019-03-04T12:20:26.715Z,92.21
2019-03-04T12:21:26.695Z,92.93
2019-03-04T12:22:26.650Z,91.58
2019-03-04T12:23:26.633Z,92.37
2019-03-04T12:24:26.714Z,91.96
2019-03-04T12:25:26.645Z,90.92
2019-03-04T12:26:26.618Z,91.50
2019-03-04T12:27:26.635Z,91.19
2019-03-04T12:28:26.574Z,89.85
2019-03-04T12:29:26.578Z,90.16
2019-03-04T12:30:26.576Z,90.06
2019-03-04T12:31:28.378Z,88.72
2019-03-04T12:32:26.584Z,89.61
2019-03-04T12:33:26.528Z,89.40
2019-03-04T12:34:26.528Z,87.19
2019-03-04T12:35:26.576Z,88.33
2019-03-04T12:36:26.491Z,86.47
2019-03-04T12:37:26.504Z,86.37
2019-03-04T12:38:26.474Z,86.88
2019-03-04T12:39:26.451Z,87.40
2019-03-04T12:40:26.452Z,88.02
2019-03-04T12:41:26.443Z,86.74
2019-03-04T12:42:26.426Z,86.23
2019-03-04T12:43:26.416Z,85.16
2019-03-04T12:47:02.247Z,83.55
2019-03-04T12:48:11.747Z,83.86
2019-03-04T12:49:11.076Z,84.27
2019-03-04T12:50:02.059Z,81.49
2019-03-04T12:51:01.843Z,80.67
2019-03-04T12:52:01.672Z,81.63
2019-03-04T12:53:02.031Z,80.05
2019-03-04T12:54:01.707Z,80.71
2019-03-04T12:55:01.594Z,81.43
2019-03-04T12:56:01.539Z,79.79
2019-03-04T12:57:03.178Z,79.16
2019-03-04T12:58:01.523Z,79.06
2019-03-04T12:59:01.551Z,79.58
2019-03-04T13:00:01.519Z,80.75
2019-03-04T13:01:03.215Z,80.23
2019-03-04T13:02:01.530Z,79.20
2019-03-04T13:03:01.484Z,79.10
2019-03-04T13:04:01.511Z,80.23
2019-03-04T13:05:02.174Z,79.51
2019-03-04T13:06:01.440Z,80.02
2019-03-04T13:07:04.540Z,79.10
2019-03-04T13:08:01.437Z,79.00
2019-03-04T13:09:01.448Z,79.58
2019-03-04T13:10:01.457Z,78.86
2019-03-04T13:11:02.071Z,79.16
2019-03-04T13:12:01.369Z,78.75
2019-03-04T13:13:01.432Z,79.99
2019-03-04T13:15:02.417Z,80.19
2019-03-04T13:16:01.564Z,80.51
2019-03-04T13:17:01.328Z,80.19
2019-03-04T13:18:01.316Z,79.99
2019-03-04T13:19:01.305Z,77.93
2019-03-04T13:20:01.303Z,79.64
2019-03-04T13:21:01.311Z,80.47
2019-03-04T13:22:08.299Z,80.88
2019-03-04T13:23:02.254Z,78.30
2019-03-04T13:24:01.271Z,80.12
2019-03-04T13:25:10.987Z,78.37
2019-03-04T13:28:55.737Z,78.75
2019-03-04T13:29:56.127Z,76.48
2019-03-04T13:30:55.247Z,75.76
2019-03-04T13:31:54.867Z,76.90
2019-03-04T13:32:54.811Z,76.07
2019-03-04T13:33:54.773Z,75.87
2019-03-04T13:34:54.770Z,74.33
2019-03-04T13:35:54.900Z,74.12
2019-03-04T13:36:54.874Z,75.25
2019-03-04T13:37:54.773Z,74.95
2019-03-04T13:38:54.727Z,75.04
2019-03-04T13:39:54.750Z,76.21
2019-03-04T13:40:54.802Z,75.04
2019-03-04T13:41:54.701Z,74.77
2019-03-04T13:42:55.343Z,75.39
2019-03-04T13:46:01.465Z,73.74
2019-03-04T13:47:01.400Z,74.26
2019-03-04T13:48:01.124Z,74.98
2019-03-04T13:49:01.400Z,75.12